Time;durP1;ratioP1;P1;durP2;ratioP2;P2;SDS_P1;SDS_P2;PMS_P1;PMS_P2;Temp;Humidity;BMP_temperature;BMP_pressure;BME280_temperature;BME280_humidity;BME280_pressure;Samples;Min_cycle;Max_cycle;Signal;HPM_P1;HPM_P2
2021/04/17 00:00:33;;;;;;;;;;;;;;;6.07;100.00;99117.72;1833403;77;20151;-67
2021/04/17 00:03:01;;;;;;;;;;;;;;;6.03;100.00;99118.46;1835016;78;20179;-67
2021/04/17 00:05:29;;;;;;;;;;;;;;;6.02;100.00;99117.27;1818466;78;20127;-67
2021/04/17 00:07:57;;;;;;;;;;;;;;;6.00;100.00;99117.44;1829373;78;20166;-67
2021/04/17 00:10:25;;;;;;;;;;;;;;;5.99;100.00;99117.07;1825576;78;20127;-67
2021/04/17 00:12:53;;;;;;;;;;;;;;;5.99;100.00;99122.81;1844850;77;20119;-67
2021/04/17 00:15:20;;;;;;;;;;;;;;;5.97;100.00;99115.55;1837969;78;20226;-67
2021/04/17 00:17:48;;;;;;;;;;;;;;;5.96;100.00;99117.81;1815561;78;20262;-67
2021/04/17 00:20:16;;;;;;;;;;;;;;;5.97;100.00;99119.48;1815519;78;20231;-67
2021/04/17 00:22:43;;;;;;;;;;;;;;;5.96;100.00;99116.50;1821310;78;20131;-67
2021/04/17 00:25:12;;;;;;;;;;;;;;;5.95;100.00;99118.30;1832295;77;20132;-66
2021/04/17 00:27:40;;;;;;;;;;;;;;;5.94;100.00;99118.40;1843297;78;20167;-67
2021/04/17 00:30:08;;;;;;;;;;;;;;;5.94;100.00;99118.40;1837794;78;20459;-67
2021/04/17 00:32:36;;;;;;;;;;;;;;;5.96;100.00;99115.19;1833590;78;20143;-67
2021/04/17 00:35:06;;;;;;;;;;;;;;;5.99;100.00;99122.32;1841546;77;20505;-67
2021/04/17 00:37:33;;;;;;;;;;;;;;;5.96;100.00;99123.88;1840812;77;20414;-66
2021/04/17 00:40:01;;;;;;;;;;;;;;;5.91;100.00;99119.50;1834055;77;20143;-67
2021/04/17 00:42:29;;;;;;;;;;;;;;;5.87;100.00;99131.20;1841741;77;20407;-67
2021/04/17 00:44:56;;;;;;;;;;;;;;;5.82;100.00;99125.54;1811314;78;20148;-67
2021/04/17 00:47:24;;;;;;;;;;;;;;;5.79;100.00;99130.55;1806096;77;20148;-67
2021/04/17 00:49:54;;;;;;;;;;;;;;;5.82;100.00;99128.16;1841535;78;20391;-67
2021/04/17 00:52:22;;;;;;;;;;;;;;;5.80;100.00;99125.66;1840606;78;20140;-67
2021/04/17 00:54:50;;;;;;;;;;;;;;;5.76;100.00;99128.66;1826929;78;20403;-67
2021/04/17 00:57:18;;;;;;;;;;;;;;;5.73;100.00;99134.20;1825970;78;20123;-67
2021/04/17 00:59:46;;;;;;;;;;;;;;;5.71;100.00;99133.50;1811205;78;20119;-67
2021/04/17 01:02:28;;;;;;;;;;;;;;;5.72;100.00;99136.45;1815021;77;20143;-67
2021/04/17 01:04:57;;;;;;;;;;;;;;;5.72;100.00;99133.83;1828968;77;20234;-66
2021/04/17 01:07:27;;;;;;;;;;;;;;;5.71;100.00;99138.74;1826176;78;20242;-67
2021/04/17 01:10:09;;;;;;;;;;;;;;;5.68;100.00;99141.13;1818075;78;20154;-67
2021/04/17 01:12:39;;;;;;;;;;;;;;;5.67;100.00;99138.63;1827462;77;20136;-67
2021/04/17 01:15:08;;;;;;;;;;;;;;;5.62;100.00;99137.23;1835528;77;20422;-67
2021/04/17 01:17:35;;;;;;;;;;;;;;;5.59;100.00;99140.13;1823622;78;20415;-67
2021/04/17 01:20:16;;;;;;;;;;;;;;;5.56;100.00;99137.76;1794522;78;20142;-67
2021/04/17 01:22:56;;;;;;;;;;;;;;;5.55;100.00;99139.19;1821151;77;20135;-67
2021/04/17 01:25:25;;;;;;;;;;;;;;;5.55;100.00;99139.19;1826796;77;20134;-66
2021/04/17 01:27:52;;;;;;;;;;;;;;;5.52;100.00;99136.36;1827381;77;20129;-66
2021/04/17 01:30:21;;;;;;;;;;;;;;;5.52;100.00;99140.75;1839290;77;20123;-66
2021/04/17 01:32:48;;;;;;;;;;;;;;;5.53;100.00;99141.12;1836983;78;20144;-66
2021/04/17 01:35:18;;;;;;;;;;;;;;;5.54;100.00;99140.99;1808891;78;20234;-66
2021/04/17 01:37:55;;;;;;;;;;;;;;;5.55;100.00;99148.37;1812922;78;20140;-66
2021/04/17 01:40:26;;;;;;;;;;;;;;;5.55;100.00;99148.37;1840973;78;20254;-66
2021/04/17 01:42:54;;;;;;;;;;;;;;;5.53;100.00;99148.50;1830751;78;20155;-67
2021/04/17 01:45:25;;;;;;;;;;;;;;;5.51;100.00;99149.11;1804001;77;20154;-66
2021/04/17 01:47:56;;;;;;;;;;;;;;;5.50;100.00;99148.77;1826011;77;20131;-67
2021/04/17 01:50:25;;;;;;;;;;;;;;;5.52;100.00;99148.63;1841291;78;20179;-68
2021/04/17 01:52:54;;;;;;;;;;;;;;;5.53;100.00;99152.92;1843334;77;20135;-67
2021/04/17 01:55:22;;;;;;;;;;;;;;;5.50;100.00;99150.09;1836937;77;20139;-67
2021/04/17 01:57:50;;;;;;;;;;;;;;;5.50;100.00;99146.15;1841360;77;20155;-66
2021/04/17 02:00:19;;;;;;;;;;;;;;;5.48;100.00;99148.08;1818467;77;20249;-67
2021/04/17 02:02:47;;;;;;;;;;;;;;;5.42;100.00;99161.67;1799695;77;20182;-67
2021/04/17 02:05:16;;;;;;;;;;;;;;;5.41;100.00;99158.72;1817507;78;20138;-67
2021/04/17 02:07:43;;;;;;;;;;;;;;;5.43;100.00;99155.48;1835737;78;20120;-67
2021/04/17 02:10:11;;;;;;;;;;;;;;;5.41;100.00;99154.30;1814690;78;20214;-67
2021/04/17 02:12:40;;;;;;;;;;;;;;;5.40;100.00;99156.55;1811827;77;20152;-67
2021/04/17 02:15:08;;;;;;;;;;;;;;;5.41;100.00;99152.98;1840486;78;20438;-67
2021/04/17 02:17:58;;;;;;;;;;;;;;;5.42;100.00;99157.74;1837808;78;20140;-67
2021/04/17 02:20:31;;;;;;;;;;;;;;;5.46;100.00;99164.39;1826812;78;20222;-67
2021/04/17 02:22:58;;;;;;;;;;;;;;;5.48;100.00;99168.20;1762536;81;20236;-67
2021/04/17 02:25:26;;;;;;;;;;;;;;;5.46;100.00;99167.02;1778866;81;20411;-67
2021/04/17 02:27:53;;;;;;;;;;;;;;;5.43;100.00;99173.36;1795674;79;20142;-67
2021/04/17 02:30:20;;;;;;;;;;;;;;;5.45;100.00;99177.17;1798189;79;20142;-67
2021/04/17 02:32:48;;;;;;;;;;;;;;;5.42;100.00;99180.03;1793790;79;20174;-67
2021/04/17 02:35:18;;;;;;;;;;;;;;;5.41;100.00;99181.02;1779393;79;20256;-67
2021/04/17 02:37:45;;;;;;;;;;;;;;;5.40;100.00;99183.27;1786426;79;20229;-67
2021/04/17 02:40:13;;;;;;;;;;;;;;;5.38;100.00;99179.45;1786988;79;20429;-67
2021/04/17 02:42:40;;;;;;;;;;;;;;;5.38;100.00;99177.31;1795555;79;20154;-67
2021/04/17 02:45:09;;;;;;;;;;;;;;;5.33;100.00;99184.27;1767042;79;20146;-67
2021/04/17 02:47:36;;;;;;;;;;;;;;;5.34;100.00;99189.03;1779696;79;20122;-67
2021/04/17 02:50:05;;;;;;;;;;;;;;;5.35;100.00;99188.05;1764480;79;20238;-67
2021/04/17 02:52:33;;;;;;;;;;;;;;;5.36;100.00;99194.48;1779565;80;20401;-67
2021/04/17 02:55:01;;;;;;;;;;;;;;;5.35;100.00;99194.61;1792011;79;20232;-67
2021/04/17 02:57:29;;;;;;;;;;;;;;;5.33;100.00;99200.45;1786880;79;20437;-67
2021/04/17 02:59:56;;;;;;;;;;;;;;;5.33;100.00;99203.08;1793817;79;20198;-67
2021/04/17 03:02:24;;;;;;;;;;;;;;;5.31;100.00;99203.69;1778200;79;20130;-67
2021/04/17 03:04:52;;;;;;;;;;;;;;;5.28;100.00;99203.96;1783880;79;20146;-67
2021/04/17 03:07:20;;;;;;;;;;;;;;;5.28;100.00;99206.58;1804634;80;20141;-67
2021/04/17 03:09:47;;;;;;;;;;;;;;;5.29;100.00;99207.73;1804342;79;20186;-67
2021/04/17 03:12:15;;;;;;;;;;;;;;;5.31;100.00;99210.24;1784016;79;20233;-67
2021/04/17 03:14:43;;;;;;;;;;;;;;;5.34;100.00;99214.76;1769823;79;20142;-67
2021/04/17 03:17:11;;;;;;;;;;;;;;;5.35;100.00;99215.13;1783126;79;20138;-67
2021/04/17 03:19:39;;;;;;;;;;;;;;;5.38;100.00;99220.59;1791330;79;20158;-67
2021/04/17 03:22:07;;;;;;;;;;;;;;;5.39;100.00;99220.95;1737362;80;20152;-67
2021/04/17 03:24:35;;;;;;;;;;;;;;;5.44;100.00;99222.23;1793718;79;20248;-67
2021/04/17 03:27:04;;;;;;;;;;;;;;;5.48;100.00;99227.21;1768857;80;20145;-67
2021/04/17 03:29:32;;;;;;;;;;;;;;;5.48;100.00;99233.31;1786989;79;20449;-67
2021/04/17 03:32:01;;;;;;;;;;;;;;;5.45;100.00;99233.55;1781099;80;20147;-67
2021/04/17 03:34:28;;;;;;;;;;;;;;;5.43;100.00;99233.67;1795541;79;20146;-67
2021/04/17 03:36:56;;;;;;;;;;;;;;;5.39;100.00;99234.89;1841597;78;20315;-67
2021/04/17 03:39:24;;;;;;;;;;;;;;;5.39;100.00;99244.55;1827842;78;20462;-67
2021/04/17 03:41:51;;;;;;;;;;;;;;;5.40;100.00;99240.95;1842207;77;20143;-67
2021/04/17 03:44:19;;;;;;;;;;;;;;;5.43;100.00;99240.72;1823790;77;20226;-67
2021/04/17 03:46:47;;;;;;;;;;;;;;;5.44;100.00;99250.23;1838635;77;20175;-67
2021/04/17 03:49:16;;;;;;;;;;;;;;;5.43;100.00;99254.66;1834726;77;20235;-67
2021/04/17 03:51:43;;;;;;;;;;;;;;;5.43;100.00;99254.66;1829577;77;20242;-67
2021/04/17 03:54:11;;;;;;;;;;;;;;;5.44;100.00;99259.41;1810743;77;20144;-66
2021/04/17 03:56:38;;;;;;;;;;;;;;;5.45;100.00;99256.67;1794902;77;20156;-67
2021/04/17 03:59:05;;;;;;;;;;;;;;;5.45;100.00;99262.40;1803147;77;20438;-67
2021/04/17 04:01:33;;;;;;;;;;;;;;;5.43;100.00;99268.25;1811362;78;20223;-67
2021/04/17 04:04:01;;;;;;;;;;;;;;;5.42;100.00;99271.36;1826808;78;20139;-67
2021/04/17 04:06:30;;;;;;;;;;;;;;;5.42;100.00;99267.89;1841215;78;20222;-67
2021/04/17 04:08:59;;;;;;;;;;;;;;;5.43;100.00;99276.13;1805423;77;20135;-67
2021/04/17 04:11:26;;;;;;;;;;;;;;;5.46;100.00;99274.54;1828459;78;20230;-67
2021/04/17 04:13:55;;;;;;;;;;;;;;;5.49;100.00;99276.92;1820195;78;20159;-67
2021/04/17 04:16:23;;;;;;;;;;;;;;;5.51;100.00;99272.87;1821445;78;20135;-67
2021/04/17 04:18:50;;;;;;;;;;;;;;;5.52;100.00;99276.69;1843522;78;20383;-67
2021/04/17 04:21:18;;;;;;;;;;;;;;;5.54;100.00;99280.50;1830474;78;20225;-67
2021/04/17 04:23:45;;;;;;;;;;;;;;;5.54;100.00;99289.19;1811336;78;20139;-67
2021/04/17 04:26:14;;;;;;;;;;;;;;;5.56;100.00;99290.38;1810988;78;21081;-67
2021/04/17 04:28:43;;;;;;;;;;;;;;;5.58;100.00;99291.09;1843720;77;20229;-67
2021/04/17 04:31:11;;;;;;;;;;;;;;;5.61;100.00;99300.85;1833362;78;20438;-67
2021/04/17 04:33:39;;;;;;;;;;;;;;;5.56;100.00;99299.08;1839312;77;20203;-66
2021/04/17 04:36:08;;;;;;;;;;;;;;;5.55;100.00;99299.20;1845598;77;20437;-67
2021/04/17 04:38:35;;;;;;;;;;;;;;;5.54;100.00;99300.17;1832830;78;20156;-67
2021/04/17 04:41:05;;;;;;;;;;;;;;;5.52;100.00;99300.29;1817206;77;20222;-67
2021/04/17 04:43:33;;;;;;;;;;;;;;;5.55;100.00;99301.81;1803883;77;20165;-67
2021/04/17 04:46:00;;;;;;;;;;;;;;;5.55;100.00;99303.95;1785835;77;20165;-67
2021/04/17 04:48:28;;;;;;;;;;;;;;;5.55;100.00;99296.57;1834722;77;20147;-67
2021/04/17 04:50:56;;;;;;;;;;;;;;;5.52;100.00;99298.13;1823711;77;20206;-67
2021/04/17 04:53:24;;;;;;;;;;;;;;;5.51;100.00;99305.66;1823204;78;20383;-67
2021/04/17 04:55:52;;;;;;;;;;;;;;;5.54;100.00;99308.04;1820555;78;20139;-67
2021/04/17 04:58:19;;;;;;;;;;;;;;;5.60;100.00;99311.47;1833058;77;20230;-67
2021/04/17 05:00:47;;;;;;;;;;;;;;;5.61;100.00;99310.48;1845021;77;20163;-67
2021/04/17 05:03:15;;;;;;;;;;;;;;;5.64;100.00;99315.50;1825095;77;20144;-67
2021/04/17 05:05:43;;;;;;;;;;;;;;;5.70;100.00;99316.30;1831175;78;20124;-67
2021/04/17 05:08:11;;;;;;;;;;;;;;;5.75;100.00;99319.38;1829102;77;20177;-67
2021/04/17 05:10:40;;;;;;;;;;;;;;;5.75;100.00;99324.63;1822619;77;20135;-67
2021/04/17 05:13:08;;;;;;;;;;;;;;;5.80;100.00;99328.20;1840301;77;20482;-67
2021/04/17 05:15:36;;;;;;;;;;;;;;;5.87;100.00;99334.59;1826084;78;20238;-67
2021/04/17 05:18:04;;;;;;;;;;;;;;;5.92;100.00;99328.48;1828183;77;20139;-67
2021/04/17 05:20:32;;;;;;;;;;;;;;;5.97;100.00;99325.53;1842986;78;20155;-67
2021/04/17 05:22:59;;;;;;;;;;;;;;;6.00;100.00;99331.36;1836783;78;20226;-67
2021/04/17 05:25:28;;;;;;;;;;;;;;;6.03;100.00;99331.58;1844480;78;20234;-67
2021/04/17 05:27:56;;;;;;;;;;;;;;;6.09;100.00;99334.17;1821744;77;20482;-67
2021/04/17 05:30:24;;;;;;;;;;;;;;;6.14;100.00;99337.25;1836206;77;20159;-67
2021/04/17 05:32:52;;;;;;;;;;;;;;;6.17;100.00;99342.23;1827944;77;20155;-67
2021/04/17 05:35:19;;;;;;;;;;;;;;;6.17;100.00;99344.86;1835840;77;20154;-67
2021/04/17 05:37:48;;;;;;;;;;;;;;;6.15;100.00;99342.84;1814533;77;20140;-67
2021/04/17 05:40:16;;;;;;;;;;;;;;;6.15;100.00;99348.09;1822391;78;20435;-67
2021/04/17 05:42:45;;;;;;;;;;;;;;;6.16;100.00;99347.14;1844878;77;20132;-67
2021/04/17 05:45:13;;;;;;;;;;;;;;;6.19;100.00;99350.80;1829244;77;20140;-67
2021/04/17 05:47:41;;;;;;;;;;;;;;;6.18;100.00;99351.30;1770785;78;20137;-68
2021/04/17 05:50:10;;;;;;;;;;;;;;;6.17;100.00;99347.48;1812761;78;20156;-68
2021/04/17 05:52:37;;;;;;;;;;;;;;;6.16;100.00;99355.02;1811409;78;20178;-67
2021/04/17 05:55:06;;;;;;;;;;;;;;;6.14;100.00;99356.95;1800293;77;20168;-67
2021/04/17 05:57:33;;;;;;;;;;;;;;;6.13;100.00;99363.97;1839639;78;20407;-67
2021/04/17 06:00:01;;;;;;;;;;;;;;;6.13;100.00;99367.91;1827915;78;20431;-67
2021/04/17 06:02:30;;;;;;;;;;;;;;;6.19;100.00;99370.50;1809664;77;20463;-67
2021/04/17 06:04:58;;;;;;;;;;;;;;;6.23;100.00;99374.56;1837070;78;20226;-67
2021/04/17 06:07:27;;;;;;;;;;;;;;;6.27;100.00;99372.03;1832913;77;20163;-68
2021/04/17 06:09:56;;;;;;;;;;;;;;;6.32;100.00;99376.42;1816933;78;20159;-67
2021/04/17 06:12:23;;;;;;;;;;;;;;;6.34;100.00;99374.50;1820307;78;20403;-67
2021/04/17 06:14:51;;;;;;;;;;;;;;;6.34;100.00;99377.13;1837655;78;20140;-67
2021/04/17 06:17:18;;;;;;;;;;;;;;;6.32;100.00;99373.80;1816843;78;20352;-67
2021/04/17 06:19:47;;;;;;;;;;;;;;;6.31;100.00;99378.69;1823725;77;20159;-68
2021/04/17 06:22:16;;;;;;;;;;;;;;;6.32;100.00;99376.87;1838155;77;20482;-68
2021/04/17 06:24:44;;;;;;;;;;;;;;;6.35;100.00;99378.77;1823120;78;20147;-68
2021/04/17 06:27:12;;;;;;;;;;;;;;;6.42;100.00;99380.42;1825650;78;20151;-68
2021/04/17 06:29:39;;;;;;;;;;;;;;;6.55;100.00;99378.91;1814202;78;20155;-68
2021/04/17 06:32:08;;;;;;;;;;;;;;;6.67;99.56;99383.11;1838144;78;20450;-68
2021/04/17 06:34:36;;;;;;;;;;;;;;;6.77;99.24;99385.31;1803997;77;20424;-67
2021/04/17 06:37:04;;;;;;;;;;;;;;;6.85;99.46;99386.47;1802884;77;20406;-67
2021/04/17 06:39:32;;;;;;;;;;;;;;;6.92;98.85;99390.20;1821351;78;20136;-67
2021/04/17 06:42:02;;;;;;;;;;;;;;;6.89;97.90;99386.55;1823033;77;20155;-67
2021/04/17 06:44:30;;;;;;;;;;;;;;;6.88;98.03;99385.69;1822852;77;20223;-67
2021/04/17 06:46:59;;;;;;;;;;;;;;;6.93;98.16;99390.56;1833909;77;20194;-67
2021/04/17 06:49:27;;;;;;;;;;;;;;;7.00;97.81;99388.59;1843420;78;20162;-67
2021/04/17 06:51:54;;;;;;;;;;;;;;;7.11;96.89;99386.36;1816880;78;20214;-67
2021/04/17 06:54:23;;;;;;;;;;;;;;;7.21;97.16;99394.77;1838727;78;20168;-67
2021/04/17 06:56:52;;;;;;;;;;;;;;;7.25;95.66;99390.89;1815766;78;20180;-67
2021/04/17 06:59:19;;;;;;;;;;;;;;;7.31;95.08;99400.88;1812849;78;20143;-67
2021/04/17 07:01:48;;;;;;;;;;;;;;;7.36;93.76;99396.05;1822347;78;20123;-68
2021/04/17 07:04:16;;;;;;;;;;;;;;;7.46;93.71;99398.70;1819336;78;20120;-67
2021/04/17 07:06:43;;;;;;;;;;;;;;;7.55;93.72;99398.71;1827582;77;20276;-68
2021/04/17 07:09:11;;;;;;;;;;;;;;;7.67;92.58;99399.45;1838687;78;20147;-67
2021/04/17 07:11:40;;;;;;;;;;;;;;;7.77;90.58;99398.95;1834432;77;20143;-70
2021/04/17 07:14:11;;;;;;;;;;;;;;;7.92;89.42;99408.61;1823149;78;20131;-65
2021/04/17 07:16:59;;;;;;;;;;;;;;;8.12;90.06;99405.99;1814752;78;20244;-67
2021/04/17 07:19:47;;;;;;;;;;;;;;;8.34;89.82;99415.38;1834108;77;20263;-67
2021/04/17 07:22:20;;;;;;;;;;;;;;;8.52;87.55;99416.37;1831956;78;20131;-68
2021/04/17 07:24:52;;;;;;;;;;;;;;;8.60;85.86;99415.66;1826956;78;20171;-67
2021/04/17 07:27:43;;;;;;;;;;;;;;;8.55;84.95;99421.37;1797127;77;20246;-68
2021/04/17 07:30:23;;;;;;;;;;;;;;;8.52;84.36;99426.09;1818135;78;20222;-69
2021/04/17 07:33:06;;;;;;;;;;;;;;;8.45;83.35;99427.13;1814501;78;20119;-68
2021/04/17 07:35:36;;;;;;;;;;;;;;;8.34;83.62;99429.87;1814564;78;20135;-68
2021/04/17 07:38:10;;;;;;;;;;;;;;;8.30;83.62;99429.35;1827634;78;20198;-67
2021/04/17 07:40:39;;;;;;;;;;;;;;;8.29;83.96;99434.27;1811327;78;20203;-67
2021/04/17 07:43:07;;;;;;;;;;;;;;;8.30;83.45;99433.30;1827885;78;20163;-68
2021/04/17 07:45:37;;;;;;;;;;;;;;;8.32;82.72;99435.31;1831407;78;20152;-67
2021/04/17 07:48:26;;;;;;;;;;;;;;;8.33;82.07;99436.13;1811264;78;20478;-67
2021/04/17 07:50:55;;;;;;;;;;;;;;;8.31;81.25;99434.12;1842048;77;20140;-67
2021/04/17 07:53:29;;;;;;;;;;;;;;;8.32;80.94;99435.31;1765272;78;20123;-68
2021/04/17 07:55:56;;;;;;;;;;;;;;;8.39;80.90;99432.11;1811545;78;20231;-67
2021/04/17 07:58:24;;;;;;;;;;;;;;;8.44;79.93;99433.38;1827045;77;20242;-67
2021/04/17 08:00:52;;;;;;;;;;;;;;;8.52;80.14;99433.99;1822726;78;20120;-67
2021/04/17 08:03:22;;;;;;;;;;;;;;;8.55;81.34;99433.72;1827285;78;20135;-68
2021/04/17 08:05:51;;;;;;;;;;;;;;;8.56;81.97;99432.73;1837150;78;20139;-67
2021/04/17 08:08:19;;;;;;;;;;;;;;;8.57;81.66;99439.68;1821382;78;20151;-67
2021/04/17 08:10:48;;;;;;;;;;;;;;;8.57;82.83;99444.09;1818174;77;20482;-66
2021/04/17 08:13:16;;;;;;;;;;;;;;;8.59;83.89;99447.45;1822864;77;20119;-68
2021/04/17 08:15:44;;;;;;;;;;;;;;;8.56;84.28;99447.23;1816747;78;20139;-68
2021/04/17 08:18:12;;;;;;;;;;;;;;;8.51;83.92;99448.12;1798093;78;20147;-66
2021/04/17 08:20:40;;;;;;;;;;;;;;;8.45;84.23;99446.06;1829188;77;20139;-68
2021/04/17 08:23:07;;;;;;;;;;;;;;;8.36;84.34;99448.55;1824872;77;20221;-67
2021/04/17 08:25:35;;;;;;;;;;;;;;;8.28;84.63;99445.76;1839403;77;20227;-67
2021/04/17 08:28:06;;;;;;;;;;;;;;;8.18;85.33;99441.48;1843285;78;20219;-67
2021/04/17 08:30:34;;;;;;;;;;;;;;;8.14;85.78;99447.52;1830847;78;20143;-68
2021/04/17 08:33:14;;;;;;;;;;;;;;;8.11;85.29;99453.86;1812724;78;20143;-68
2021/04/17 08:35:43;;;;;;;;;;;;;;;8.06;85.34;99455.25;1824362;77;20139;-67
2021/04/17 08:38:12;;;;;;;;;;;;;;;8.02;84.87;99459.13;1826484;78;20407;-67
2021/04/17 08:54:38;;;;;;;3.90;3.42;;;;;;;8.77;81.84;99452.81;1852969;77;23232;-67
2021/04/17 08:57:18;;;;;;;5.00;4.20;;;;;;;8.75;80.93;99451.63;1821409;79;21286;-66
2021/04/17 08:59:56;;;;;;;4.12;3.72;;;;;;;8.74;81.08;99460.03;1820116;78;21567;-68
2021/04/17 09:02:27;;;;;;;4.55;4.15;;;;;;;8.76;80.56;99459.08;1816305;78;21583;-67
2021/04/17 09:05:03;;;;;;;5.15;4.65;;;;;;;8.73;80.66;99461.49;1774508;79;21188;-67
2021/04/17 09:07:32;;;;;;;4.97;4.47;;;;;;;8.70;80.25;99459.16;1805727;78;21230;-67
2021/04/17 09:10:33;;;;;;;7.55;5.03;;;;;;;8.64;81.28;99458.38;1822903;77;22405;-68
2021/04/17 09:13:20;;;;;;;5.58;5.05;;;;;;;8.57;81.73;99462.09;1812321;78;21159;-67
2021/04/17 09:15:56;;;;;;;6.20;5.60;;;;;;;8.47;82.26;99455.98;1794777;79;21171;-66
2021/04/17 09:18:40;;;;;;;9.23;6.22;;;;;;;8.40;82.08;99461.42;1820673;79;21619;-66
2021/04/17 09:21:24;;;;;;;6.45;5.47;;;;;;;8.36;82.93;99463.53;1802320;79;21536;-67
2021/04/17 09:23:54;;;;;;;6.97;5.72;;;;;;;8.32;84.13;99457.70;1818725;79;21168;-68
2021/04/17 09:26:36;;;;;;;8.18;6.28;;;;;;;8.29;85.00;99461.92;1800574;78;21151;-67
2021/04/17 09:29:15;;;;;;;10.05;6.72;;;;;;;8.25;86.05;99461.86;1789875;79;21158;-67
2021/04/17 09:31:43;;;;;;;8.10;6.45;;;;;;;8.22;86.90;99464.77;1782454;79;21309;-67
2021/04/17 09:34:14;;;;;;;8.95;6.70;;;;;;;8.18;87.02;99460.75;1809049;79;21125;-67
2021/04/17 09:36:44;;;;;;;8.03;6.22;;;;;;;8.16;87.92;99467.95;1819478;78;21543;-67
2021/04/17 09:39:30;;;;;;;10.53;7.47;;;;;;;8.18;88.00;99473.09;1811145;78;21156;-67
2021/04/17 09:42:00;;;;;;;9.38;6.85;;;;;;;8.14;87.86;99464.14;1804069;79;21150;-67
2021/04/17 09:44:46;;;;;;;7.78;6.60;;;;;;;8.06;87.59;99467.09;1807358;79;21202;-68
2021/04/17 09:47:16;;;;;;;8.98;7.30;;;;;;;8.00;86.50;99468.97;1808318;78;21326;-67
2021/04/17 09:49:48;;;;;;;10.40;6.78;;;;;;;7.97;85.41;99466.14;1777651;79;21140;-68
2021/04/17 09:55:15;;;;;;;9.35;7.72;;;;;;;7.92;86.29;99469.16;1804900;78;23706;-67
2021/04/17 09:57:47;;;;;;;9.88;8.10;;;;;;;7.89;86.84;99477.81;1708878;82;21211;-68
2021/04/17 10:00:18;;;;;;;11.43;9.13;;;;;;;7.85;87.64;99479.06;1760111;81;21188;-67
2021/04/17 10:02:47;;;;;;;11.73;9.68;;;;;;;7.81;88.16;99479.81;1701092;83;21579;-67
2021/04/17 10:05:32;;;;;;;12.35;9.58;;;;;;;7.81;88.44;99484.25;1706242;81;21627;-66
2021/04/17 10:08:00;;;;;;;13.55;10.32;;;;;;;7.80;87.48;99483.89;1713070;81;21132;-67
2021/04/17 10:10:37;;;;;;;16.73;10.82;;;;;;;7.80;87.46;99486.06;1709261;82;21176;-67
2021/04/17 10:13:05;;;;;;;14.40;10.72;;;;;;;7.80;87.59;99487.38;1718039;81;21144;-67
2021/04/17 10:15:34;;;;;;;13.68;10.23;;;;;;;7.79;88.09;99488.33;1729312;83;21137;-66
2021/04/17 10:18:04;;;;;;;15.70;9.95;;;;;;;7.80;89.02;99493.96;1742166;81;21321;-67
2021/04/17 10:20:35;;;;;;;14.75;10.63;;;;;;;7.81;89.39;99490.34;1740304;81;21164;-67
2021/04/17 10:23:03;;;;;;;14.25;10.95;;;;;;;7.80;89.59;99495.28;1706240;82;21188;-67
2021/04/17 10:25:40;;;;;;;12.85;10.13;;;;;;;7.77;90.10;99493.73;1704282;82;21175;-67
2021/04/17 10:28:24;;;;;;;14.58;10.25;;;;;;;7.79;89.95;99498.86;1725342;82;21167;-67
2021/04/17 10:30:54;;;;;;;;;;;;;;;7.78;89.97;99497.22;1760990;81;21543;-68
2021/04/17 10:33:27;;;;;;;13.50;10.45;;;;;;;7.81;89.87;99494.30;1747240;81;20153;-68
2021/04/17 10:35:58;;;;;;;11.83;9.65;;;;;;;7.80;90.43;99501.00;1754572;81;22064;-67
2021/04/17 10:38:32;;;;;;;12.53;9.18;;;;;;;7.79;90.42;99502.81;1701014;83;21644;-67
2021/04/17 10:41:03;;;;;;;13.00;9.95;;;;;;;7.78;90.81;99503.30;1763196;81;21203;-68
2021/04/17 10:43:31;;;;;;;12.70;9.45;;;;;;;7.77;91.14;99502.94;1750436;81;21151;-67
2021/04/17 10:46:03;;;;;;;11.93;8.95;;;;;;;7.77;90.53;99513.47;1749689;81;21172;-67
2021/04/17 10:48:45;;;;;;;9.20;7.92;;;;;;;7.81;90.03;99514.53;1745658;81;21175;-67
2021/04/17 10:51:17;;;;;;;10.55;8.53;;;;;;;7.86;89.56;99513.66;1752991;81;21286;-68
2021/04/17 10:53:49;;;;;;;11.13;8.37;;;;;;;7.86;89.61;99515.79;1719204;82;21127;-66
2021/04/17 10:56:22;;;;;;;9.85;7.90;;;;;;;7.86;89.79;99519.73;1729363;83;21340;-67
2021/04/17 10:59:01;;;;;;;11.70;8.80;;;;;;;7.86;89.89;99521.55;1720063;82;21350;-68
2021/04/17 11:01:36;;;;;;;9.10;6.90;;;;;;;7.85;90.38;99522.01;1754070;81;21175;-67
2021/04/17 11:04:04;;;;;;;10.30;7.35;;;;;;;7.85;90.22;99522.01;1746850;81;21165;-68
2021/04/17 11:06:36;;;;;;;9.88;6.65;;;;;;;7.83;89.82;99521.81;1716493;82;21171;-68
2021/04/17 11:09:12;;;;;;;10.75;7.25;;;;;;;7.84;89.15;99514.27;1736131;82;21738;-68
2021/04/17 11:11:57;;;;;;;9.93;7.47;;;;;;;7.85;90.44;99512.80;1732789;83;21177;-68
2021/04/17 11:14:28;;;;;;;8.05;6.58;;;;;;;7.89;91.32;99515.99;1686705;84;21298;-67
2021/04/17 11:16:56;;;;;;;9.95;6.58;;;;;;;7.89;90.65;99522.11;1733039;81;21182;-67
2021/04/17 11:19:30;;;;;;;6.87;6.15;;;;;;;7.92;90.40;99523.63;1733255;82;21140;-67
2021/04/17 11:22:25;;;;;;;9.60;6.40;;;;;;;7.93;90.41;99526.14;1728500;82;21207;-67
2021/04/17 11:25:03;;;;;;;6.33;5.72;;;;;;;7.94;90.78;99523.02;1727188;82;21159;-68
2021/04/17 11:27:31;;;;;;;7.03;6.10;;;;;;;7.93;90.65;99532.72;1731116;82;21453;-68
2021/04/17 11:30:02;;;;;;;10.13;7.20;;;;;;;7.95;90.83;99532.10;1749179;81;21210;-67
2021/04/17 11:32:31;;;;;;;10.43;7.05;;;;;;;7.97;90.39;99531.97;1744283;81;21661;-67
2021/04/17 11:35:06;;;;;;;8.75;7.08;;;;;;;8.03;90.33;99532.73;1727764;81;21163;-67
2021/04/17 11:37:34;;;;;;;10.35;7.95;;;;;;;8.07;90.51;99530.67;1731551;81;21156;-67
2021/04/17 11:40:05;;;;;;;7.40;6.47;;;;;;;8.12;90.64;99527.98;1762285;81;21548;-67
2021/04/17 11:42:33;;;;;;;7.78;6.55;;;;;;;8.20;90.25;99531.24;1725577;83;21217;-67
2021/04/17 11:45:01;;;;;;;7.92;6.90;;;;;;;8.29;89.53;99530.92;1730646;82;21178;-67
2021/04/17 11:47:29;;;;;;;8.10;6.80;;;;;;;8.31;88.45;99535.06;1716173;82;21178;-67
2021/04/17 11:49:57;;;;;;;7.60;6.33;;;;;;;8.27;88.79;99532.86;1723844;82;21163;-67
2021/04/17 11:52:25;;;;;;;7.58;6.03;;;;;;;8.19;90.43;99532.20;1723848;82;21206;-67
2021/04/17 11:54:54;;;;;;;6.85;6.15;;;;;;;8.19;89.83;99536.15;1716017;82;21379;-67
2021/04/17 11:57:23;;;;;;;6.72;5.42;;;;;;;8.24;89.11;99537.07;1720466;82;21214;-67
2021/04/17 11:59:51;;;;;;;6.05;5.40;;;;;;;8.26;88.56;99535.95;1724880;82;21300;-68
2021/04/17 12:02:19;;;;;;;6.95;6.10;;;;;;;8.25;88.43;99540.89;1735510;82;21192;-67
2021/04/17 12:04:47;;;;;;;7.65;6.17;;;;;;;8.23;88.49;99537.56;1695694;83;21578;-67
2021/04/17 12:07:15;;;;;;;8.48;6.30;;;;;;;8.23;89.59;99536.25;1723748;82;21527;-67
2021/04/17 12:09:44;;;;;;;7.78;6.65;;;;;;;8.23;89.23;99541.52;1728096;82;21147;-68
2021/04/17 12:12:12;;;;;;;8.48;6.05;;;;;;;8.23;89.09;99541.98;1720390;82;21607;-67
2021/04/17 12:14:40;;;;;;;6.30;5.70;;;;;;;8.24;89.55;99543.17;1728054;82;21151;-66
2021/04/17 12:17:08;;;;;;;7.28;6.47;;;;;;;8.28;90.86;99549.82;1689535;83;21286;-69
2021/04/17 12:19:36;;;;;;;8.20;6.30;;;;;;;8.32;91.94;99546.44;1728306;82;21237;-67
2021/04/17 12:22:04;;;;;;;8.08;6.72;;;;;;;8.31;92.87;99544.29;1728172;82;21150;-68
2021/04/17 12:24:34;;;;;;;7.90;7.10;;;;;;;8.31;93.72;99550.87;1720585;82;21178;-67
2021/04/17 12:27:03;;;;;;;8.73;7.15;;;;;;;8.27;94.06;99545.54;1724927;82;21190;-66
2021/04/17 12:29:32;;;;;;;8.83;6.95;;;;;;;8.21;94.18;99550.50;1694377;82;22168;-67
2021/04/17 12:32:00;;;;;;;7.70;6.17;;;;;;;8.20;94.39;99543.09;1717703;81;21171;-67
2021/04/17 12:34:28;;;;;;;12.00;6.30;;;;;;;8.22;94.08;99546.42;1702332;83;21189;-67
2021/04/17 12:36:56;;;;;;;7.33;6.60;;;;;;;8.20;94.07;99543.09;1753786;81;21162;-68
2021/04/17 12:39:25;;;;;;;7.85;6.92;;;;;;;8.19;94.28;99549.32;1760586;81;21591;-67
2021/04/17 12:41:53;;;;;;;8.93;7.55;;;;;;;8.17;93.18;99551.26;1715268;82;21362;-67
2021/04/17 12:44:20;;;;;;;7.67;6.97;;;;;;;8.11;93.04;99553.13;1751455;81;21220;-67
2021/04/17 12:46:48;;;;;;;10.20;6.85;;;;;;;8.04;93.25;99545.41;1723794;82;21255;-67
2021/04/17 12:49:17;;;;;;;8.33;6.10;;;;;;;8.04;93.62;99550.68;1761438;81;21626;-67
2021/04/17 12:51:45;;;;;;;7.15;6.45;;;;;;;8.06;94.39;99549.59;1753964;81;21179;-68
2021/04/17 12:54:14;;;;;;;7.75;6.50;;;;;;;8.05;94.72;99552.36;1711964;82;21305;-67
2021/04/17 12:56:42;;;;;;;8.70;6.65;;;;;;;8.06;95.08;99552.23;1712025;82;21713;-67